Lower Brule, SD (57548)

7:22 PM CDT on July 24, 2016 (GMT -0500)
Chamberlain | | Change Station

Elev 1693 ft 43.77 °N, 99.32 °W | Updated 7 minutes ago

Clear
Clear
85 °F
Feels Like 84 °F
N
0
Wind Variable Wind from North

Today
High -- | Low -- °F
--% Chance of Precip.
Yesterday
High -- | Low -- °F
Precip. -- in
Pressure 30.05 in
Visibility 10.0 miles
Clouds Clear
Heat Index 84 °F
Dew Point 55 °F
Humidity 36%
Rainfall 0.00 in
Snow Depth Not available.
6:18 AM 9:11 PM
Waning Gibbous, 71% visible
METAR K9V9 250015Z AUTO 00000KT 10SM CLR 29/13 A3005 RMK AO2 T02940128
Pressure 30.05 in
Visibility 10.0 miles
Clouds Clear
Heat Index 84 °F
Dew Point 55 °F
Humidity 36%
Rainfall 0.00 in
Snow Depth Not available.
6:18 AM 9:11 PM
Waning Gibbous, 71% visible
METAR K9V9 250015Z AUTO 00000KT 10SM CLR 29/13 A3005 RMK AO2 T02940128

10-Day Weather Forecast

Almanac

Astronomy

Jul. 24, 2016 Rise Set
Actual Time
Civil Twilight
Nautical Twilight
Astronomical Twilight
Moon
Length of Visible Light
Length of Day
Tomorrow will be .
, % of the Moon is Illuminated

Today's Extremes

State Highs State Lows

Community

WunderPhotos

Upload Photos

1,927,212 photos uploaded!

WunderBlog® & News

Nearby

Air Quality

  Air Quality AQ Index Pollutant
Not available.

Snow Depth

Station Depth Elevation

Earthquake Activity

City Distance Mag. Time & Date
Minimum magnitude displayed is 2.5.

Coastal Water Temperatures

Place Temperature

Stations

Nearby Weather Stations

Station Location Temp. Windchill Dew Point Humidity Wind Precip. Elev Updated Type
                   

Watches & Warnings

There are currently no watches in effect.